Time;durP1;ratioP1;P1;durP2;ratioP2;P2;SDS_P1;SDS_P2;PMS_P1;PMS_P2;Temp;Humidity;BMP_temperature;BMP_pressure;BME280_temperature;BME280_humidity;BME280_pressure;Samples;Min_cycle;Max_cycle;Signal;HPM_P1;HPM_P2
2023/07/27 00:02:08;;;;;;;9.80;6.20;;;;;;;18.74;100.00;98433.75;5040456;28;20087;-94
2023/07/27 00:04:34;;;;;;;9.93;6.53;;;;;;;18.75;100.00;98441.72;5036747;28;20068;-94
2023/07/27 00:07:01;;;;;;;13.85;5.85;;;;;;;18.77;100.00;98442.47;5040557;28;20041;-93
2023/07/27 00:09:27;;;;;;;10.85;6.15;;;;;;;18.55;100.00;98424.16;5040464;28;20068;-95
2023/07/27 00:11:55;;;;;;;9.25;5.35;;;;;;;18.56;100.00;98441.19;5040428;28;20056;-94
2023/07/27 00:14:21;;;;;;;10.25;5.70;;;;;;;18.54;100.00;98438.63;5040523;28;20114;-94
2023/07/27 00:16:46;;;;;;;11.75;5.20;;;;;;;18.57;100.00;98445.63;5033949;28;20041;-93
2023/07/27 00:19:12;;;;;;;14.20;5.40;;;;;;;18.68;100.00;98456.56;5032941;28;20455;-93
2023/07/27 00:21:38;;;;;;;13.38;6.50;;;;;;;18.61;100.00;98456.09;5040057;28;20045;-94
2023/07/27 00:24:06;;;;;;;13.30;6.10;;;;;;;18.41;100.00;98446.63;5040331;28;20033;-93
2023/07/27 00:26:32;;;;;;;12.20;5.60;;;;;;;18.41;100.00;98449.31;5039310;28;20040;-94
2023/07/27 00:28:57;;;;;;;14.90;6.20;;;;;;;18.28;100.00;98426.81;5039150;28;20542;-93
2023/07/27 00:31:23;;;;;;;13.63;6.38;;;;;;;18.42;100.00;98452.84;5039954;28;20132;-94
2023/07/27 00:33:49;;;;;;;11.85;6.55;;;;;;;18.41;100.00;98468.16;5039902;28;20044;-93
2023/07/27 00:36:15;;;;;;;13.32;6.13;;;;;;;18.38;100.00;98462.09;5039669;28;20044;-94
2023/07/27 00:38:41;;;;;;;16.70;6.10;;;;;;;18.53;100.00;98474.56;5039663;28;20145;-94
2023/07/27 00:41:08;;;;;;;11.85;6.40;;;;;;;18.40;100.00;98484.41;5040712;28;20114;-93
2023/07/27 00:43:34;;;;;;;13.10;6.72;;;;;;;18.17;100.00;98486.72;5040633;28;20083;-95
2023/07/27 00:46:00;;;;;;;12.88;6.50;;;;;;;18.21;100.00;98488.22;5039484;28;20040;-94
2023/07/27 00:48:27;;;;;;;13.48;7.47;;;;;;;18.22;100.00;98479.22;5037123;28;20051;-95
2023/07/27 00:50:54;;;;;;;12.35;6.68;;;;;;;18.38;100.00;98487.19;5038840;28;20036;-94
2023/07/27 00:53:20;;;;;;;13.02;6.00;;;;;;;18.42;100.00;98471.72;5039490;28;20107;-93
2023/07/27 00:55:46;;;;;;;10.75;6.30;;;;;;;18.47;100.00;98467.72;5039598;28;20037;-96
2023/07/27 00:58:14;;;;;;;12.32;5.72;;;;;;;18.55;100.00;98486.09;5039738;28;20131;-93
2023/07/27 01:00:42;;;;;;;13.93;6.00;;;;;;;18.59;100.00;98482.25;5039454;28;20035;-94
2023/07/27 01:03:09;;;;;;;13.80;5.97;;;;;;;18.72;100.00;98478.78;5039276;28;20044;-94
2023/07/27 01:05:35;;;;;;;12.88;5.65;;;;;;;18.74;100.00;98468.78;5039086;28;20044;-95
2023/07/27 01:08:01;;;;;;;13.10;5.65;;;;;;;18.72;100.00;98451.84;5036339;28;20145;-94
2023/07/27 01:10:39;;;;;;;14.82;6.13;;;;;;;18.90;100.00;98466.81;5039772;28;20072;-94
2023/07/27 01:13:12;;;;;;;11.05;5.50;;;;;;;18.94;100.00;98480.97;5038912;28;20037;-94
2023/07/27 01:15:47;;;;;;;13.30;5.40;;;;;;;18.93;100.00;98465.75;5038575;28;20082;-93
2023/07/27 01:18:23;;;;;;;12.05;5.05;;;;;;;18.92;100.00;98464.88;5038650;28;20044;-95
2023/07/27 01:20:59;;;;;;;16.23;5.43;;;;;;;18.99;100.00;98476.97;5038140;28;20552;-94
2023/07/27 01:24:10;;;;;;;12.15;5.03;;;;;;;18.99;100.00;98487.75;5038837;28;20075;-94
2023/07/27 01:27:14;;;;;;;12.98;4.90;;;;;;;18.91;100.00;98464.97;5035384;28;20056;-93
2023/07/27 01:30:03;;;;;;;9.00;4.40;;;;;;;19.03;100.00;98475.81;4979170;28;20042;-94
2023/07/27 01:32:33;;;;;;;9.50;3.63;;;;;;;19.11;100.00;98471.75;4976377;28;20047;-93
2023/07/27 01:35:02;;;;;;;7.47;3.97;;;;;;;19.06;100.00;98466.66;4969580;28;20137;-93
2023/07/27 01:37:29;;;;;;;;;;;;;;;19.20;100.00;98482.78;4962840;28;20065;-94
2023/07/27 01:39:58;;;;;;;8.02;3.55;;;;;;;19.05;100.00;98470.34;4977428;28;19925;-95
2023/07/27 01:42:25;;;;;;;8.00;3.50;;;;;;;19.10;100.00;98481.66;4978760;28;20042;-93
2023/07/27 01:44:52;;;;;;;9.52;3.67;;;;;;;18.97;100.00;98454.66;4979184;28;20035;-95
2023/07/27 01:47:19;;;;;;;5.75;3.28;;;;;;;18.96;100.00;98449.38;4978940;28;20057;-95
2023/07/27 01:49:47;;;;;;;6.25;3.50;;;;;;;18.88;100.00;98455.28;4977860;28;20439;-93
2023/07/27 01:52:15;;;;;;;9.68;4.38;;;;;;;18.78;100.00;98455.03;4977874;28;20073;-94
2023/07/27 01:54:42;;;;;;;8.03;3.30;;;;;;;18.76;100.00;98445.25;4967839;28;20054;-93
2023/07/27 01:57:09;;;;;;;8.00;3.45;;;;;;;18.66;100.00;98445.00;4978871;28;20046;-94
2023/07/27 01:59:37;;;;;;;8.18;2.97;;;;;;;18.69;100.00;98434.03;4978711;28;20109;-94
2023/07/27 02:02:04;;;;;;;6.70;2.90;;;;;;;18.62;100.00;98427.31;4967986;28;20058;-93
2023/07/27 02:04:30;;;;;;;5.22;2.42;;;;;;;18.55;100.00;98421.47;5026337;28;20048;-96
2023/07/27 02:06:58;;;;;;;6.72;2.70;;;;;;;18.55;100.00;98421.47;5038706;28;20140;-94
2023/07/27 02:09:25;;;;;;;6.00;2.40;;;;;;;18.58;100.00;98456.28;5038692;28;20056;-96
2023/07/27 02:11:55;;;;;;;6.00;2.30;;;;;;;18.61;100.00;98460.63;5038562;28;20041;-94
2023/07/27 02:14:31;;;;;;;5.78;2.30;;;;;;;18.52;100.00;98453.13;5026411;28;20044;-94
2023/07/27 02:17:01;;;;;;;5.65;2.78;;;;;;;18.45;100.00;98448.16;5038540;28;20501;-93
2023/07/27 02:19:29;;;;;;;7.28;2.70;;;;;;;18.40;100.00;98458.34;5038382;28;20132;-94
2023/07/27 02:21:56;;;;;;;6.18;2.25;;;;;;;18.32;100.00;98431.03;5026513;28;20514;-95
2023/07/27 02:24:26;;;;;;;8.07;2.60;;;;;;;18.46;100.00;98468.72;5035593;28;20504;-95
2023/07/27 02:26:52;;;;;;;8.00;2.47;;;;;;;18.27;100.00;98438.56;5035906;28;20041;-94
2023/07/27 02:29:18;;;;;;;6.13;2.25;;;;;;;18.35;100.00;98451.53;5038514;28;20570;-94
2023/07/27 02:31:44;;;;;;;7.60;2.30;;;;;;;18.40;100.00;98465.56;5037967;28;20033;-94
2023/07/27 02:34:10;;;;;;;8.75;2.63;;;;;;;18.31;100.00;98450.84;5038036;28;20444;-94
2023/07/27 02:36:36;;;;;;;5.85;2.17;;;;;;;18.35;100.00;98452.38;5037972;28;20508;-94
2023/07/27 02:39:02;;;;;;;7.03;2.40;;;;;;;18.40;100.00;98460.16;5020778;28;20057;-94
2023/07/27 02:41:29;;;;;;;4.95;2.00;;;;;;;18.41;100.00;98467.25;5034722;28;20045;-93
2023/07/27 02:43:55;;;;;;;4.95;2.20;;;;;;;18.44;100.00;98462.56;5042150;28;20041;-95
2023/07/27 02:46:21;;;;;;;5.18;2.33;;;;;;;18.43;100.00;98462.66;5042086;28;20055;-94
2023/07/27 02:48:47;;;;;;;6.20;2.17;;;;;;;18.42;100.00;98471.72;5042430;28;20049;-94
2023/07/27 02:51:12;;;;;;;6.95;2.67;;;;;;;18.38;100.00;98470.16;5040087;28;20037;-94
2023/07/27 02:53:38;;;;;;;5.15;2.30;;;;;;;18.32;100.00;98471.41;5041221;28;20045;-94
2023/07/27 02:56:06;;;;;;;7.57;2.10;;;;;;;18.39;100.00;98479.97;5041125;28;20041;-94
2023/07/27 02:58:33;;;;;;;11.98;2.58;;;;;;;18.32;100.00;98474.09;5041837;28;20045;-94
2023/07/27 03:01:01;;;;;;;6.10;2.20;;;;;;;18.40;100.00;98492.47;5041310;28;20104;-94
2023/07/27 03:03:28;;;;;;;6.13;3.33;;;;;;;18.25;100.00;98488.91;5041579;28;20044;-95
2023/07/27 03:05:57;;;;;;;5.80;2.30;;;;;;;18.29;100.00;98505.75;5033570;28;20394;-94
2023/07/27 03:08:23;;;;;;;4.70;2.17;;;;;;;18.19;100.00;98497.38;5028661;28;20056;-94
2023/07/27 03:10:49;;;;;;;5.75;2.40;;;;;;;18.22;100.00;98502.59;5031335;28;20045;-94
2023/07/27 03:13:15;;;;;;;5.30;2.30;;;;;;;18.21;100.00;98509.75;5039791;28;20047;-95
2023/07/27 03:15:42;;;;;;;7.13;2.22;;;;;;;18.16;100.00;98505.66;5041113;28;20041;-93
2023/07/27 03:18:08;;;;;;;7.93;2.17;;;;;;;18.29;100.00;98513.81;5040349;28;20041;-94
2023/07/27 03:20:38;;;;;;;4.75;2.03;;;;;;;18.42;100.00;98521.03;5036324;28;20052;-94
2023/07/27 03:23:04;;;;;;;5.43;2.22;;;;;;;18.38;100.00;98515.94;5040998;28;20044;-94
2023/07/27 03:25:31;;;;;;;4.13;2.10;;;;;;;18.31;100.00;98517.28;5040761;28;20041;-94
2023/07/27 03:27:57;;;;;;;5.10;2.10;;;;;;;18.43;100.00;98538.94;5022881;28;20045;-94
2023/07/27 03:30:23;;;;;;;6.00;2.17;;;;;;;18.22;100.00;98516.91;5021299;28;20487;-95
2023/07/27 03:32:50;;;;;;;7.07;2.40;;;;;;;18.19;100.00;98517.06;5029607;28;20060;-95
2023/07/27 03:35:16;;;;;;;4.07;2.05;;;;;;;18.22;100.00;98524.13;5040876;28;20056;-93
2023/07/27 03:37:42;;;;;;;6.35;2.33;;;;;;;18.13;100.00;98506.72;5041074;28;20053;-93
2023/07/27 03:40:09;;;;;;;4.72;2.08;;;;;;;18.21;100.00;98530.44;5028889;28;20578;-92
2023/07/27 03:42:35;;;;;;;5.75;2.10;;;;;;;18.24;100.00;98543.72;5021196;28;20090;-92
2023/07/27 03:45:00;;;;;;;6.38;2.10;;;;;;;18.19;100.00;98545.81;5021403;28;20065;-93
2023/07/27 03:47:26;;;;;;;6.72;2.33;;;;;;;18.13;100.00;98540.81;5020811;28;20045;-94
2023/07/27 03:49:53;;;;;;;5.55;2.03;;;;;;;18.01;100.00;98539.75;5021304;28;20048;-93
2023/07/27 03:52:19;;;;;;;7.25;2.35;;;;;;;18.01;100.00;98543.28;5021144;28;20126;-94
2023/07/27 03:54:45;;;;;;;7.18;2.38;;;;;;;17.97;100.00;98528.28;5021097;28;20041;-95
2023/07/27 03:57:11;;;;;;;3.90;2.00;;;;;;;17.88;100.00;98512.72;5020394;28;20048;-93
2023/07/27 03:59:37;;;;;;;4.93;1.90;;;;;;;18.06;100.00;98540.31;5016599;28;20034;-94
2023/07/27 04:02:03;;;;;;;5.13;1.98;;;;;;;17.98;100.00;98519.28;5017135;28;20037;-93
2023/07/27 04:04:29;;;;;;;4.72;2.42;;;;;;;18.02;100.00;98525.31;5003686;28;20038;-94
2023/07/27 04:06:56;;;;;;;5.95;2.15;;;;;;;17.94;100.00;98523.13;5001067;28;20557;-94
2023/07/27 04:09:22;;;;;;;4.50;2.10;;;;;;;18.09;100.00;98542.84;5020413;28;20049;-94
2023/07/27 04:11:48;;;;;;;4.45;2.17;;;;;;;18.11;100.00;98557.06;5020586;28;20041;-93
2023/07/27 04:14:13;;;;;;;8.43;2.10;;;;;;;18.15;100.00;98564.00;5020249;28;20039;-94
2023/07/27 04:16:39;;;;;;;5.45;2.15;;;;;;;18.08;100.00;98561.75;5020032;28;20042;-93
2023/07/27 04:19:05;;;;;;;5.43;1.90;;;;;;;17.78;100.00;98551.84;5017832;28;20046;-93
2023/07/27 04:21:31;;;;;;;8.25;2.20;;;;;;;17.52;100.00;98565.06;5003335;28;20042;-93
2023/07/27 04:23:58;;;;;;;4.72;2.40;;;;;;;17.35;100.00;98540.94;5014868;28;20080;-93
2023/07/27 04:26:24;;;;;;;4.50;2.10;;;;;;;17.40;100.00;98560.38;5006456;28;20046;-92
2023/07/27 04:28:50;;;;;;;5.22;1.95;;;;;;;17.30;100.00;98541.22;5020768;28;20136;-94
2023/07/27 04:31:16;;;;;;;5.07;2.38;;;;;;;17.37;100.00;98539.03;5020596;28;20093;-94
2023/07/27 04:33:41;;;;;;;5.88;2.00;;;;;;;17.49;100.00;98541.03;5020785;28;20041;-93
2023/07/27 04:36:07;;;;;;;4.18;1.95;;;;;;;17.73;100.00;98549.44;5020326;28;20072;-94
2023/07/27 04:38:33;;;;;;;5.28;2.03;;;;;;;17.77;100.00;98542.94;5020405;28;20045;-94
2023/07/27 04:41:00;;;;;;;4.82;2.55;;;;;;;17.89;100.00;98537.78;5020434;28;20052;-95
2023/07/27 04:43:26;;;;;;;5.30;2.05;;;;;;;18.01;100.00;98556.75;5020182;28;20047;-95
2023/07/27 04:45:52;;;;;;;4.15;2.28;;;;;;;18.09;100.00;98561.69;5015500;28;20049;-93
2023/07/27 04:48:18;;;;;;;7.55;2.33;;;;;;;18.17;100.00;98558.50;5020213;28;20458;-93
2023/07/27 04:50:44;;;;;;;8.45;2.40;;;;;;;18.12;100.00;98556.09;5020192;28;20072;-94
2023/07/27 04:53:10;;;;;;;7.30;2.50;;;;;;;18.14;100.00;98559.56;5020574;28;20557;-92
2023/07/27 04:55:35;;;;;;;15.18;2.50;;;;;;;18.18;100.00;98574.56;5020274;28;20049;-93
2023/07/27 04:58:03;;;;;;;7.88;2.40;;;;;;;17.95;100.00;98542.81;5020330;28;20045;-93
2023/07/27 05:00:29;;;;;;;10.50;2.33;;;;;;;18.01;100.00;98572.91;5014101;28;20050;-94
2023/07/27 05:02:56;;;;;;;5.57;2.38;;;;;;;18.02;100.00;98577.34;5019520;28;20103;-94
2023/07/27 05:05:22;;;;;;;8.48;2.78;;;;;;;17.95;100.00;98573.25;5018136;28;20145;-93
2023/07/27 05:07:48;;;;;;;9.02;2.55;;;;;;;18.04;100.00;98582.59;5019886;28;20466;-94
2023/07/27 05:10:14;;;;;;;11.02;2.50;;;;;;;18.17;100.00;98602.44;5016712;28;20063;-93
2023/07/27 05:12:40;;;;;;;6.90;2.35;;;;;;;18.69;100.00;98609.09;5017004;28;20490;-93
2023/07/27 05:15:08;;;;;;;4.70;2.40;;;;;;;19.23;100.00;98595.78;5017994;28;20042;-94
2023/07/27 05:17:33;;;;;;;8.77;2.23;;;;;;;19.62;100.00;98582.47;5019101;28;20041;-93
2023/07/27 05:20:00;;;;;;;6.95;2.78;;;;;;;20.22;100.00;98606.28;5019653;28;21426;-92
2023/07/27 05:22:26;;;;;;;6.68;2.22;;;;;;;20.64;100.00;98604.25;5017812;28;20052;-93
2023/07/27 05:24:52;;;;;;;6.78;2.60;;;;;;;20.59;100.00;98601.03;5019517;28;20557;-94
2023/07/27 05:27:17;;;;;;;7.70;3.10;;;;;;;20.57;100.00;98589.47;5018948;28;20051;-93
2023/07/27 05:29:43;;;;;;;5.47;2.30;;;;;;;20.80;100.00;98593.25;5018993;28;20041;-93
2023/07/27 05:32:10;;;;;;;8.98;2.80;;;;;;;21.25;97.68;98603.50;5018734;28;20038;-93
2023/07/27 05:34:36;;;;;;;6.07;2.40;;;;;;;21.50;96.32;98611.56;5018839;28;20048;-93
2023/07/27 05:37:02;;;;;;;5.80;2.45;;;;;;;21.24;96.21;98577.44;5013235;28;20101;-93
2023/07/27 05:39:28;;;;;;;4.22;2.30;;;;;;;20.90;98.41;98564.56;5021376;28;20093;-92
2023/07/27 05:41:54;;;;;;;5.85;2.33;;;;;;;20.64;99.32;98571.84;5020351;28;20045;-95
2023/07/27 05:44:21;;;;;;;5.90;2.50;;;;;;;20.68;100.00;98591.41;5019923;28;20441;-93
2023/07/27 05:46:53;;;;;;;5.68;2.28;;;;;;;20.47;100.00;98583.84;5019746;28;20037;-93
2023/07/27 05:49:21;;;;;;;5.75;2.28;;;;;;;20.63;100.00;98586.34;5008666;28;20021;-93
2023/07/27 05:51:47;;;;;;;5.30;2.20;;;;;;;20.99;99.12;98594.59;5004765;28;20045;-93
2023/07/27 05:54:13;;;;;;;4.18;2.13;;;;;;;21.34;98.99;98595.59;5010717;28;20042;-93
2023/07/27 05:56:40;;;;;;;5.13;2.22;;;;;;;21.38;96.87;98584.53;4999688;28;20443;-93
2023/07/27 05:59:06;;;;;;;4.55;2.25;;;;;;;21.65;94.93;98597.88;5018830;28;20100;-92
2023/07/27 06:01:32;;;;;;;6.05;2.17;;;;;;;21.76;95.06;98595.22;5018939;28;20041;-92
2023/07/27 06:04:00;;;;;;;4.80;2.30;;;;;;;21.94;94.58;98599.22;5018674;28;20128;-93
2023/07/27 06:06:27;;;;;;;6.27;1.87;;;;;;;22.05;91.72;98602.97;5014179;28;20047;-93
2023/07/27 06:08:53;;;;;;;3.60;1.90;;;;;;;21.96;91.42;98596.41;5015696;28;20049;-94
2023/07/27 06:11:19;;;;;;;5.05;2.35;;;;;;;22.00;91.89;98602.47;5006268;28;20550;-93
2023/07/27 06:13:46;;;;;;;5.63;2.00;;;;;;;21.16;92.75;98604.19;5015262;28;20061;-93
2023/07/27 06:16:12;;;;;;;6.22;2.00;;;;;;;21.25;91.85;98600.81;5018976;28;20106;-92
2023/07/27 06:18:38;;;;;;;5.78;1.90;;;;;;;21.12;95.40;98601.72;5018537;28;20042;-93
2023/07/27 06:21:03;;;;;;;6.68;2.28;;;;;;;21.03;95.58;98593.41;5018279;28;20041;-94
2023/07/27 06:23:31;;;;;;;5.22;1.88;;;;;;;21.26;94.19;98597.13;5018848;28;20045;-93
2023/07/27 06:25:57;;;;;;;5.88;1.98;;;;;;;21.55;93.78;98608.50;5018824;28;20064;-93
2023/07/27 06:28:23;;;;;;;5.75;2.10;;;;;;;21.66;93.28;98605.00;5018321;28;20033;-93
2023/07/27 06:30:48;;;;;;;6.03;2.22;;;;;;;21.58;93.03;98605.59;5018272;28;20069;-93
2023/07/27 06:33:14;;;;;;;6.28;2.25;;;;;;;21.34;93.83;98586.63;5018567;28;20100;-93
2023/07/27 06:35:40;;;;;;;5.85;2.28;;;;;;;21.43;90.95;98591.38;5016470;28;20145;-93
2023/07/27 06:38:07;;;;;;;4.35;1.95;;;;;;;21.09;94.68;98606.47;5017893;28;20045;-94
2023/07/27 06:40:34;;;;;;;4.63;2.50;;;;;;;20.97;95.89;98605.53;5013530;28;20061;-93
2023/07/27 06:43:00;;;;;;;4.78;2.10;;;;;;;21.00;95.04;98617.97;5018216;28;20037;-94
2023/07/27 06:45:26;;;;;;;25.52;2.78;;;;;;;21.52;94.11;98620.44;5019430;28;20103;-94
2023/07/27 06:47:52;;;;;;;4.43;2.22;;;;;;;21.85;89.27;98612.59;5018716;28;20045;-95
2023/07/27 06:50:18;;;;;;;6.45;2.17;;;;;;;21.53;89.82;98605.94;5018742;28;20038;-94
2023/07/27 06:52:44;;;;;;;5.30;2.00;;;;;;;21.62;90.35;98606.22;5018145;28;20072;-95
2023/07/27 06:55:10;;;;;;;4.78;2.22;;;;;;;21.70;87.04;98610.06;5016425;28;20037;-95
2023/07/27 06:57:37;;;;;;;6.40;2.28;;;;;;;21.49;88.50;98604.44;5007368;28;20132;-96
2023/07/27 07:00:06;;;;;;;8.27;2.38;;;;;;;21.81;86.26;98611.09;5019000;28;20566;-94
2023/07/27 07:02:31;;;;;;;3.85;1.85;;;;;;;21.72;86.61;98604.56;5019373;28;20525;-94
2023/07/27 07:04:58;;;;;;;4.13;2.20;;;;;;;22.04;84.73;98610.22;5019586;28;20045;-96
2023/07/27 07:07:23;;;;;;;3.95;1.77;;;;;;;22.31;82.36;98623.50;5018791;28;20049;-94
2023/07/27 07:09:49;;;;;;;4.25;1.70;;;;;;;22.32;81.86;98598.16;5019311;28;20160;-94
2023/07/27 07:12:15;;;;;;;4.50;1.90;;;;;;;22.37;80.55;98599.63;5018809;28;20050;-95
2023/07/27 07:14:43;;;;;;;5.13;1.80;;;;;;;22.60;81.68;98622.19;5019755;28;20056;-95
2023/07/27 07:17:09;;;;;;;4.75;1.85;;;;;;;22.90;79.52;98627.91;5020377;28;20104;-94
2023/07/27 07:19:35;;;;;;;4.50;2.03;;;;;;;22.85;81.19;98621.13;5023377;28;20041;-92
2023/07/27 07:22:01;;;;;;;4.57;1.90;;;;;;;22.85;81.23;98630.13;5021498;28;20390;-95
2023/07/27 07:24:28;;;;;;;3.67;2.03;;;;;;;22.42;83.30;98610.97;5025262;28;20399;-94
2023/07/27 07:30:14;;;;;;;4.32;1.90;;;;;;;23.06;81.40;98622.16;4949373;29;20055;-94
2023/07/27 07:32:40;;;;;;;5.47;2.03;;;;;;;23.12;81.51;98628.94;4952141;29;20497;-92
2023/07/27 07:35:06;;;;;;;4.07;1.80;;;;;;;23.01;81.56;98631.63;4945372;29;20040;-94
2023/07/27 07:37:32;;;;;;;4.28;2.00;;;;;;;23.39;79.01;98633.94;4947396;29;20035;-93
2023/07/27 07:39:58;;;;;;;4.63;1.88;;;;;;;23.69;77.84;98637.84;4956737;28;20062;-95
2023/07/27 07:42:24;;;;;;;3.40;1.70;;;;;;;23.74;76.79;98624.72;4964445;28;20046;-95
2023/07/27 07:44:50;;;;;;;6.15;1.95;;;;;;;23.69;76.69;98610.69;4963452;28;20042;-94
2023/07/27 07:47:17;;;;;;;3.92;2.33;;;;;;;23.73;76.45;98610.28;4963396;28;20129;-93
2023/07/27 07:49:43;;;;;;;4.13;1.90;;;;;;;24.14;75.99;98621.41;4979334;28;20105;-95
2023/07/27 07:52:09;;;;;;;5.47;2.10;;;;;;;23.89;77.87;98619.91;4979129;28;20504;-95
2023/07/27 07:54:35;;;;;;;4.55;2.08;;;;;;;24.17;75.97;98632.84;4963305;28;20141;-95
2023/07/27 07:57:01;;;;;;;4.25;2.00;;;;;;;24.58;75.03;98625.75;4962333;28;20038;-96
2023/07/27 07:59:27;;;;;;;5.55;2.10;;;;;;;24.22;74.60;98624.31;4962296;28;20051;-95
2023/07/27 08:01:53;;;;;;;3.55;1.83;;;;;;;24.45;75.11;98614.19;4962302;28;20149;-95
2023/07/27 08:04:20;;;;;;;6.05;2.17;;;;;;;24.86;72.08;98607.00;4962125;28;20039;-96
2023/07/27 08:06:46;;;;;;;4.90;2.20;;;;;;;24.55;72.25;98606.13;5000446;28;20063;-94
2023/07/27 08:09:12;;;;;;;4.72;1.95;;;;;;;24.90;70.91;98605.72;5040291;28;20041;-92
2023/07/27 08:11:41;;;;;;;5.70;2.00;;;;;;;25.26;72.32;98608.03;5041468;28;20566;-95
2023/07/27 08:14:07;;;;;;;4.38;2.08;;;;;;;25.05;72.04;98619.84;5042303;28;20048;-95
2023/07/27 08:16:33;;;;;;;4.80;2.08;;;;;;;24.95;69.81;98617.06;5042069;28;20053;-93
2023/07/27 08:18:59;;;;;;;4.00;1.80;;;;;;;24.96;70.52;98607.03;5041762;28;20051;-95
2023/07/27 08:21:28;;;;;;;4.15;2.10;;;;;;;25.22;68.35;98591.13;5043166;28;20041;-95
2023/07/27 08:23:55;;;;;;;4.45;2.10;;;;;;;25.48;59.82;98591.50;5043416;28;20033;-94
2023/07/27 08:26:21;;;;;;;5.30;1.92;;;;;;;25.81;56.18;98608.44;5042721;28;20489;-93
2023/07/27 08:28:47;;;;;;;5.00;2.20;;;;;;;25.89;55.25;98589.53;5044049;28;20052;-95
2023/07/27 08:31:14;;;;;;;5.80;2.45;;;;;;;26.17;55.85;98597.84;5043563;28;20041;-94
2023/07/27 08:33:47;;;;;;;5.50;1.90;;;;;;;26.06;55.64;98612.47;5043428;28;20082;-95
2023/07/27 08:36:13;;;;;;;3.05;1.90;;;;;;;26.28;56.13;98599.56;5024293;28;20041;-94
2023/07/27 08:38:41;;;;;;;3.45;1.95;;;;;;;26.40;54.96;98588.34;5042934;28;20044;-95
2023/07/27 08:41:07;;;;;;;3.75;2.08;;;;;;;26.22;53.73;98601.03;5024273;28;20092;-94
2023/07/27 08:43:34;;;;;;;4.53;1.77;;;;;;;26.41;52.49;98603.72;5025668;28;20107;-95
2023/07/27 08:46:00;;;;;;;5.72;2.67;;;;;;;26.64;49.48;98608.84;5024401;28;20080;-94
2023/07/27 08:48:28;;;;;;;4.18;1.70;;;;;;;26.80;49.24;98603.63;5022927;28;20049;-94
2023/07/27 08:50:57;;;;;;;4.22;1.73;;;;;;;25.85;49.84;98612.63;5021987;28;20148;-95
2023/07/27 08:53:23;;;;;;;5.57;2.00;;;;;;;25.72;50.01;98598.38;5024014;28;20077;-96
2023/07/27 08:55:50;;;;;;;4.50;1.98;;;;;;;25.95;47.59;98599.00;5022262;28;20095;-95
2023/07/27 08:58:17;;;;;;;3.77;1.70;;;;;;;25.22;50.66;98610.16;5022235;28;20041;-95
2023/07/27 09:00:43;;;;;;;5.70;1.80;;;;;;;25.57;49.64;98604.25;5022751;28;20536;-94
2023/07/27 09:03:09;;;;;;;3.70;2.10;;;;;;;25.91;48.87;98611.19;5021238;28;20045;-94
2023/07/27 09:05:39;;;;;;;9.10;2.95;;;;;;;26.05;48.18;98609.94;5022460;28;20042;-95
2023/07/27 09:08:07;;;;;;;10.85;2.08;;;;;;;26.59;48.56;98620.22;5021843;28;20041;-94
2023/07/27 09:10:33;;;;;;;16.20;3.73;;;;;;;26.58;47.15;98615.75;5017596;28;20136;-95
2023/07/27 09:13:00;;;;;;;3.95;1.90;;;;;;;26.77;46.36;98608.53;5013625;28;20045;-95
2023/07/27 09:15:26;;;;;;;4.90;1.80;;;;;;;27.08;46.38;98627.38;5021086;28;20042;-94
2023/07/27 09:17:53;;;;;;;4.03;1.88;;;;;;;27.03;45.07;98617.78;5020996;28;20072;-94
2023/07/27 09:20:19;;;;;;;5.38;2.15;;;;;;;27.11;45.65;98614.31;5020618;28;20441;-94
2023/07/27 09:22:45;;;;;;;3.53;2.00;;;;;;;27.32;44.54;98626.88;5020615;28;20481;-94
2023/07/27 09:25:11;;;;;;;4.30;2.28;;;;;;;27.37;44.51;98624.53;5017556;28;20076;-94
2023/07/27 09:27:44;;;;;;;5.80;2.28;;;;;;;27.23;44.12;98602.19;5021252;28;20075;-95
2023/07/27 09:30:16;;;;;;;5.85;2.20;;;;;;;27.23;44.29;98609.53;5020064;28;20046;-94
2023/07/27 09:32:41;;;;;;;5.65;2.13;;;;;;;27.64;44.03;98626.41;5020132;28;20037;-93
2023/07/27 09:35:13;;;;;;;4.97;2.47;;;;;;;27.40;45.37;98626.97;5021611;28;20052;-95
2023/07/27 09:37:42;;;;;;;5.32;2.17;;;;;;;27.64;45.37;98616.31;5020323;28;20056;-95
2023/07/27 09:40:10;;;;;;;3.88;1.85;;;;;;;27.97;44.28;98622.16;5019166;28;20079;-95
2023/07/27 09:42:37;;;;;;;4.80;2.28;;;;;;;28.14;41.64;98625.06;5020327;28;20123;-94
2023/07/27 09:45:03;;;;;;;5.90;2.58;;;;;;;28.08;42.43;98601.94;5021432;28;20045;-94
2023/07/27 09:47:31;;;;;;;4.50;2.05;;;;;;;28.28;41.55;98599.91;5018788;28;20402;-95
2023/07/27 09:49:59;;;;;;;5.80;2.00;;;;;;;28.57;40.07;98618.78;5017304;28;20038;-95
2023/07/27 09:52:27;;;;;;;3.35;1.98;;;;;;;28.79;40.09;98616.53;5043546;28;20034;-95
2023/07/27 09:54:55;;;;;;;7.00;2.03;;;;;;;28.92;40.35;98616.94;5018758;28;20045;-94
2023/07/27 09:57:21;;;;;;;4.63;2.03;;;;;;;28.68;40.32;98609.44;5018476;28;20049;-95
2023/07/27 09:59:48;;;;;;;5.90;2.35;;;;;;;28.81;38.40;98609.03;5018658;28;20044;-95
2023/07/27 10:02:14;;;;;;;4.40;2.00;;;;;;;28.80;38.75;98610.91;5017500;28;20042;-94
2023/07/27 10:04:46;;;;;;;5.78;2.30;;;;;;;28.76;38.72;98597.72;5018780;28;20048;-94
2023/07/27 10:07:13;;;;;;;4.82;2.05;;;;;;;28.58;39.05;98595.00;4999738;28;20141;-95
2023/07/27 10:09:38;;;;;;;4.25;2.10;;;;;;;28.53;38.86;98592.75;4998928;28;20128;-95
2023/07/27 10:12:05;;;;;;;3.55;1.80;;;;;;;28.68;39.43;98593.03;4998585;28;20073;-94
2023/07/27 10:14:32;;;;;;;4.60;1.92;;;;;;;28.70;40.08;98588.25;4999084;28;20041;-94
2023/07/27 10:17:00;;;;;;;6.18;2.13;;;;;;;28.83;37.93;98585.94;4994198;28;20043;-94
2023/07/27 10:19:38;;;;;;;4.63;2.50;;;;;;;28.95;37.58;98600.22;4991130;28;20395;-94
2023/07/27 10:22:08;;;;;;;5.22;2.10;;;;;;;28.99;36.93;98582.41;4994522;28;20058;-95
2023/07/27 10:24:46;;;;;;;5.82;2.05;;;;;;;29.08;36.90;98597.88;4998017;28;20545;-95
2023/07/27 10:27:12;;;;;;;;;;;;;;;28.38;36.77;98606.13;5000628;28;20045;-95
2023/07/27 10:29:38;;;;;;;4.57;2.10;;;;;;;28.52;35.49;98590.16;4999316;28;19921;-96
2023/07/27 10:32:06;;;;;;;3.30;2.08;;;;;;;28.80;36.87;98597.22;4998609;28;20046;-94
2023/07/27 10:34:34;;;;;;;3.92;2.05;;;;;;;28.99;35.58;98576.09;4991859;28;20042;-94
2023/07/27 10:37:01;;;;;;;3.67;2.00;;;;;;;29.13;35.63;98585.63;4988656;28;20046;-93
2023/07/27 10:39:30;;;;;;;5.03;2.05;;;;;;;29.11;34.51;98572.09;5006853;28;20049;-94
2023/07/27 10:42:02;;;;;;;6.35;2.20;;;;;;;29.25;33.51;98565.97;5020501;28;20435;-94
2023/07/27 10:44:29;;;;;;;3.97;2.17;;;;;;;29.49;34.06;98575.28;5014041;28;20049;-94
2023/07/27 10:46:57;;;;;;;3.97;2.03;;;;;;;29.48;30.86;98559.88;5017341;28;20068;-94
2023/07/27 10:49:23;;;;;;;;;;;;;;;29.35;29.16;98578.69;5018688;28;20514;-92
2023/07/27 10:51:49;;;;;;;4.13;2.08;;;;;;;29.37;31.47;98565.69;5050772;28;19921;-94
2023/07/27 10:54:15;;;;;;;3.53;2.20;;;;;;;29.38;27.85;98556.44;5014257;28;20133;-93
2023/07/27 10:56:43;;;;;;;5.20;2.00;;;;;;;29.32;28.81;98570.78;5018355;28;20069;-95
2023/07/27 10:59:12;;;;;;;;;;;;;;;29.36;29.11;98570.28;5018965;28;20137;-95
2023/07/27 11:01:38;;;;;;;3.28;1.90;;;;;;;29.39;29.31;98555.41;5022747;28;19925;-95
2023/07/27 11:04:05;;;;;;;12.13;2.53;;;;;;;28.87;31.04;98557.22;5023097;28;20087;-94
2023/07/27 11:06:41;;;;;;;4.55;2.20;;;;;;;28.81;29.85;98543.34;5021815;28;20041;-93
2023/07/27 11:09:10;;;;;;;6.35;2.28;;;;;;;29.13;32.09;98548.13;5022121;28;20048;-94
2023/07/27 11:11:36;;;;;;;4.32;2.10;;;;;;;29.29;33.64;98530.91;5020702;28;20045;-95
2023/07/27 11:14:06;;;;;;;6.30;2.15;;;;;;;29.54;32.22;98555.59;5022795;28;20041;-95
2023/07/27 11:16:32;;;;;;;3.47;2.05;;;;;;;29.41;32.13;98534.19;5040028;28;20037;-95
2023/07/27 11:19:02;;;;;;;4.68;2.13;;;;;;;29.45;32.92;98525.47;5023181;28;20049;-94
2023/07/27 11:21:28;;;;;;;7.25;2.15;;;;;;;29.72;33.47;98539.06;5022843;28;20048;-95
2023/07/27 11:23:54;;;;;;;5.03;2.08;;;;;;;29.84;32.16;98524.88;5021284;28;20037;-93
2023/07/27 11:26:20;;;;;;;4.28;2.33;;;;;;;29.80;31.96;98515.28;5018069;28;20038;-93
2023/07/27 11:28:46;;;;;;;5.13;2.13;;;;;;;30.10;31.91;98532.94;5019079;28;20042;-95
2023/07/27 11:31:18;;;;;;;6.68;2.20;;;;;;;30.20;31.21;98515.44;5019361;28;20033;-94
2023/07/27 11:33:44;;;;;;;3.90;2.10;;;;;;;30.30;30.26;98511.50;5020165;28;20045;-94